sensor_id;sensor_type;location;lat;lon;timestamp;P1;P2;P0
77354;PMS7003;66422;51.202;19.936;2023-04-06T00:03:06;49.00;34.00;21.00
77354;PMS7003;66422;51.202;19.936;2023-04-06T00:18:26;59.00;45.00;30.00
77354;PMS7003;66422;51.202;19.936;2023-04-06T00:33:45;56.00;35.50;26.00
77354;PMS7003;66422;51.202;19.936;2023-04-06T00:49:05;60.00;37.00;27.00
77354;PMS7003;66422;51.202;19.936;2023-04-06T01:04:25;46.00;30.50;21.00
77354;PMS7003;66422;51.202;19.936;2023-04-06T01:19:45;63.50;43.50;29.00
77354;PMS7003;66422;51.202;19.936;2023-04-06T01:35:08;51.00;37.00;25.00
77354;PMS7003;66422;51.202;19.936;2023-04-06T01:50:30;66.50;40.00;24.50
77354;PMS7003;66422;51.202;19.936;2023-04-06T02:05:50;35.00;24.00;16.00
77354;PMS7003;66422;51.202;19.936;2023-04-06T02:21:15;55.00;37.00;24.00
77354;PMS7003;66422;51.202;19.936;2023-04-06T02:36:39;60.50;39.50;27.50
77354;PMS7003;66422;51.202;19.936;2023-04-06T02:52:00;63.00;45.00;30.00
77354;PMS7003;66422;51.202;19.936;2023-04-06T03:07:23;55.00;36.00;25.00
77354;PMS7003;66422;51.202;19.936;2023-04-06T03:22:43;60.00;45.00;30.00
77354;PMS7003;66422;51.202;19.936;2023-04-06T03:38:04;67.00;45.33;30.33
77354;PMS7003;66422;51.202;19.936;2023-04-06T03:53:25;68.50;48.00;30.50
77354;PMS7003;66422;51.202;19.936;2023-04-06T04:08:44;75.00;58.00;39.00
77354;PMS7003;66422;51.202;19.936;2023-04-06T04:24:04;78.67;50.67;33.00
77354;PMS7003;66422;51.202;19.936;2023-04-06T04:39:25;85.00;55.00;33.00
77354;PMS7003;66422;51.202;19.936;2023-04-06T04:54:51;73.00;51.00;33.00
77354;PMS7003;66422;51.202;19.936;2023-04-06T05:10:16;78.25;54.25;34.00
77354;PMS7003;66422;51.202;19.936;2023-04-06T05:25:44;73.00;52.00;34.00
77354;PMS7003;66422;51.202;19.936;2023-04-06T05:41:11;91.00;57.00;39.00
77354;PMS7003;66422;51.202;19.936;2023-04-06T05:56:33;85.00;59.67;37.00
77354;PMS7003;66422;51.202;19.936;2023-04-06T06:11:53;74.00;51.00;33.00
77354;PMS7003;66422;51.202;19.936;2023-04-06T06:27:13;50.00;40.00;31.67
77354;PMS7003;66422;51.202;19.936;2023-04-06T06:42:34;57.00;42.50;26.00
77354;PMS7003;66422;51.202;19.936;2023-04-06T06:58:14;51.00;33.67;21.33
77354;PMS7003;66422;51.202;19.936;2023-04-06T07:13:34;49.50;30.50;21.50
77354;PMS7003;66422;51.202;19.936;2023-04-06T07:28:54;36.50;23.00;15.50
77354;PMS7003;66422;51.202;19.936;2023-04-06T07:44:16;23.50;22.00;13.25
77354;PMS7003;66422;51.202;19.936;2023-04-06T07:59:36;12.00;9.00;7.00
77354;PMS7003;66422;51.202;19.936;2023-04-06T08:14:56;13.00;11.00;10.00
77354;PMS7003;66422;51.202;19.936;2023-04-06T08:30:16;12.00;1.50;0.00
77354;PMS7003;66422;51.202;19.936;2023-04-06T08:45:35;15.67;11.33;6.67
77354;PMS7003;66422;51.202;19.936;2023-04-06T09:00:55;21.50;13.00;11.00
77354;PMS7003;66422;51.202;19.936;2023-04-06T09:16:15;17.50;13.00;11.00
77354;PMS7003;66422;51.202;19.936;2023-04-06T09:31:35;11.00;11.00;8.67
77354;PMS7003;66422;51.202;19.936;2023-04-06T09:46:55;20.50;13.50;9.50
77354;PMS7003;66422;51.202;19.936;2023-04-06T10:03:02;18.00;11.00;10.00
77354;PMS7003;66422;51.202;19.936;2023-04-06T10:18:01;22.00;17.00;11.00
77354;PMS7003;66422;51.202;19.936;2023-04-06T10:33:22;17.50;16.00;11.00
77354;PMS7003;66422;51.202;19.936;2023-04-06T10:48:43;29.50;15.50;11.50
77354;PMS7003;66422;51.202;19.936;2023-04-06T11:04:08;28.00;15.50;10.00
77354;PMS7003;66422;51.202;19.936;2023-04-06T11:19:32;21.00;14.67;10.00
77354;PMS7003;66422;51.202;19.936;2023-04-06T11:34:54;21.00;17.50;12.00
77354;PMS7003;66422;51.202;19.936;2023-04-06T11:50:13;27.00;17.00;14.00
77354;PMS7003;66422;51.202;19.936;2023-04-06T12:05:33;26.50;20.50;15.00
77354;PMS7003;66422;51.202;19.936;2023-04-06T12:20:53;27.00;19.67;13.67
77354;PMS7003;66422;51.202;19.936;2023-04-06T12:36:12;27.00;18.67;16.00
77354;PMS7003;66422;51.202;19.936;2023-04-06T12:51:33;38.67;25.33;16.33
77354;PMS7003;66422;51.202;19.936;2023-04-06T13:06:52;35.67;22.67;18.00
77354;PMS7003;66422;51.202;19.936;2023-04-06T13:22:12;40.00;31.00;20.00
77354;PMS7003;66422;51.202;19.936;2023-04-06T13:37:32;45.00;33.00;22.00
77354;PMS7003;66422;51.202;19.936;2023-04-06T13:52:52;53.00;44.00;32.00
77354;PMS7003;66422;51.202;19.936;2023-04-06T14:08:12;56.00;44.00;29.00
77354;PMS7003;66422;51.202;19.936;2023-04-06T14:23:32;54.50;42.75;30.00
77354;PMS7003;66422;51.202;19.936;2023-04-06T14:38:52;47.00;44.00;28.00
77354;PMS7003;66422;51.202;19.936;2023-04-06T14:54:11;60.00;47.50;32.50
77354;PMS7003;66422;51.202;19.936;2023-04-06T15:09:31;53.00;41.00;24.00
77354;PMS7003;66422;51.202;19.936;2023-04-06T15:24:50;61.00;39.50;27.50
77354;PMS7003;66422;51.202;19.936;2023-04-06T15:40:10;66.50;45.00;29.00
77354;PMS7003;66422;51.202;19.936;2023-04-06T15:55:32;72.50;49.00;31.00
77354;PMS7003;66422;51.202;19.936;2023-04-06T16:10:52;69.50;45.25;29.50
77354;PMS7003;66422;51.202;19.936;2023-04-06T16:26:12;61.00;39.00;25.00
77354;PMS7003;66422;51.202;19.936;2023-04-06T16:41:33;70.00;48.50;32.00
77354;PMS7003;66422;51.202;19.936;2023-04-06T16:56:53;66.00;49.00;31.00
77354;PMS7003;66422;51.202;19.936;2023-04-06T17:12:13;69.67;45.00;30.00
77354;PMS7003;66422;51.202;19.936;2023-04-06T17:27:33;75.50;56.00;35.00
77354;PMS7003;66422;51.202;19.936;2023-04-06T17:42:52;72.67;48.67;32.33
77354;PMS7003;66422;51.202;19.936;2023-04-06T17:58:12;72.25;50.00;32.00
77354;PMS7003;66422;51.202;19.936;2023-04-06T18:13:31;63.50;47.00;31.00
77354;PMS7003;66422;51.202;19.936;2023-04-06T18:28:51;70.50;51.50;30.00
77354;PMS7003;66422;51.202;19.936;2023-04-06T18:44:11;70.67;51.67;33.00
77354;PMS7003;66422;51.202;19.936;2023-04-06T18:59:30;80.50;49.00;30.00
77354;PMS7003;66422;51.202;19.936;2023-04-06T19:14:50;70.00;49.00;30.00
77354;PMS7003;66422;51.202;19.936;2023-04-06T19:30:10;69.00;49.00;24.00
77354;PMS7003;66422;51.202;19.936;2023-04-06T19:45:30;65.00;47.50;31.50
77354;PMS7003;66422;51.202;19.936;2023-04-06T20:00:50;78.00;51.50;33.50
77354;PMS7003;66422;51.202;19.936;2023-04-06T20:16:09;62.50;48.00;32.00
77354;PMS7003;66422;51.202;19.936;2023-04-06T20:31:28;81.00;54.00;33.00
77354;PMS7003;66422;51.202;19.936;2023-04-06T20:46:48;51.50;36.00;28.50
77354;PMS7003;66422;51.202;19.936;2023-04-06T21:02:08;75.00;48.50;27.50
77354;PMS7003;66422;51.202;19.936;2023-04-06T21:17:27;41.00;39.50;27.50
77354;PMS7003;66422;51.202;19.936;2023-04-06T21:32:47;62.33;45.00;30.00
77354;PMS7003;66422;51.202;19.936;2023-04-06T21:48:06;46.00;40.00;28.00
77354;PMS7003;66422;51.202;19.936;2023-04-06T22:03:26;60.50;39.50;21.50
77354;PMS7003;66422;51.202;19.936;2023-04-06T22:18:46;57.00;37.00;24.00
77354;PMS7003;66422;51.202;19.936;2023-04-06T22:34:05;48.00;30.67;21.00
77354;PMS7003;66422;51.202;19.936;2023-04-06T22:49:25;34.50;18.50;15.50
77354;PMS7003;66422;51.202;19.936;2023-04-06T23:04:45;49.67;31.00;21.33
77354;PMS7003;66422;51.202;19.936;2023-04-06T23:20:04;52.00;37.50;25.50
77354;PMS7003;66422;51.202;19.936;2023-04-06T23:35:24;46.50;34.00;23.00
77354;PMS7003;66422;51.202;19.936;2023-04-06T23:50:45;51.50;30.25;20.25
